sensor_id;sensor_type;location;lat;lon;timestamp;pressure;altitude;pressure_sealevel;temperature;humidity
40954;BME280;26686;50.130;8.710;2023-04-10T00:00:10;100847.44;;;9.66;53.73
40954;BME280;26686;50.130;8.710;2023-04-10T00:05:11;100854.66;;;9.64;53.51
40954;BME280;26686;50.130;8.710;2023-04-10T00:10:13;100855.06;;;9.58;53.48
40954;BME280;26686;50.130;8.710;2023-04-10T00:15:14;100864.00;;;9.57;53.72
40954;BME280;26686;50.130;8.710;2023-04-10T00:20:16;100855.78;;;9.47;53.86
40954;BME280;26686;50.130;8.710;2023-04-10T00:25:17;100861.75;;;9.50;54.12
40954;BME280;26686;50.130;8.710;2023-04-10T00:30:19;100860.34;;;9.45;53.95
40954;BME280;26686;50.130;8.710;2023-04-10T00:35:21;100857.03;;;9.41;54.36
40954;BME280;26686;50.130;8.710;2023-04-10T00:40:23;100852.13;;;9.35;54.51
40954;BME280;26686;50.130;8.710;2023-04-10T00:45:25;100849.75;;;9.30;54.88
40954;BME280;26686;50.130;8.710;2023-04-10T00:50:27;100852.22;;;9.33;54.68
40954;BME280;26686;50.130;8.710;2023-04-10T00:55:28;100855.19;;;9.29;54.40
40954;BME280;26686;50.130;8.710;2023-04-10T01:00:29;100845.91;;;9.22;54.58
40954;BME280;26686;50.130;8.710;2023-04-10T01:05:36;100853.88;;;9.22;54.55
40954;BME280;26686;50.130;8.710;2023-04-10T01:10:48;100856.44;;;9.23;54.72
40954;BME280;26686;50.130;8.710;2023-04-10T01:16:01;100856.63;;;9.20;54.98
40954;BME280;26686;50.130;8.710;2023-04-10T01:21:07;100864.91;;;9.15;55.10
40954;BME280;26686;50.130;8.710;2023-04-10T01:26:10;100852.59;;;9.14;55.19
40954;BME280;26686;50.130;8.710;2023-04-10T01:31:28;100857.13;;;9.12;55.29
40954;BME280;26686;50.130;8.710;2023-04-10T01:36:35;100864.47;;;9.09;55.23
40954;BME280;26686;50.130;8.710;2023-04-10T01:41:38;100856.88;;;9.02;55.55
40954;BME280;26686;50.130;8.710;2023-04-10T01:46:42;100859.66;;;9.01;55.76
40954;BME280;26686;50.130;8.710;2023-04-10T01:51:44;100855.47;;;8.97;55.89
40954;BME280;26686;50.130;8.710;2023-04-10T01:56:46;100852.53;;;8.87;55.96
40954;BME280;26686;50.130;8.710;2023-04-10T02:01:48;100842.69;;;8.89;56.11
40954;BME280;26686;50.130;8.710;2023-04-10T02:07:00;100839.56;;;8.82;56.61
40954;BME280;26686;50.130;8.710;2023-04-10T02:12:08;100845.84;;;8.81;56.54
40954;BME280;26686;50.130;8.710;2023-04-10T02:17:13;100834.44;;;8.79;56.79
40954;BME280;26686;50.130;8.710;2023-04-10T02:22:16;100814.59;;;8.72;56.45
40954;BME280;26686;50.130;8.710;2023-04-10T02:27:34;100820.94;;;8.70;56.59
40954;BME280;26686;50.130;8.710;2023-04-10T02:32:36;100830.13;;;8.64;57.11
40954;BME280;26686;50.130;8.710;2023-04-10T02:37:38;100822.16;;;8.49;57.49
40954;BME280;26686;50.130;8.710;2023-04-10T02:42:39;100825.69;;;8.50;57.53
40954;BME280;26686;50.130;8.710;2023-04-10T02:47:41;100828.81;;;8.42;57.87
40954;BME280;26686;50.130;8.710;2023-04-10T02:52:43;100829.84;;;8.40;58.30
40954;BME280;26686;50.130;8.710;2023-04-10T02:57:44;100824.91;;;8.34;58.72
40954;BME280;26686;50.130;8.710;2023-04-10T03:02:46;100816.47;;;8.27;58.64
40954;BME280;26686;50.130;8.710;2023-04-10T03:07:48;100822.06;;;8.22;58.54
40954;BME280;26686;50.130;8.710;2023-04-10T03:12:49;100803.78;;;8.18;58.66
40954;BME280;26686;50.130;8.710;2023-04-10T03:17:50;100808.16;;;8.19;58.93
40954;BME280;26686;50.130;8.710;2023-04-10T03:22:52;100818.75;;;8.19;58.75
40954;BME280;26686;50.130;8.710;2023-04-10T03:27:53;100808.44;;;8.14;58.91
40954;BME280;26686;50.130;8.710;2023-04-10T03:32:56;100803.97;;;8.14;59.30
40954;BME280;26686;50.130;8.710;2023-04-10T03:37:57;100804.06;;;8.13;58.93
40954;BME280;26686;50.130;8.710;2023-04-10T03:42:59;100803.31;;;8.11;59.32
40954;BME280;26686;50.130;8.710;2023-04-10T03:48:01;100796.50;;;8.07;59.18
40954;BME280;26686;50.130;8.710;2023-04-10T03:53:02;100801.97;;;8.04;59.32
40954;BME280;26686;50.130;8.710;2023-04-10T03:58:04;100787.38;;;7.96;59.46
40954;BME280;26686;50.130;8.710;2023-04-10T04:03:05;100796.38;;;7.94;59.99
40954;BME280;26686;50.130;8.710;2023-04-10T04:08:07;100795.06;;;7.87;59.68
40954;BME280;26686;50.130;8.710;2023-04-10T04:13:09;100796.00;;;7.86;60.22
40954;BME280;26686;50.130;8.710;2023-04-10T04:18:10;100791.81;;;7.82;59.89
40954;BME280;26686;50.130;8.710;2023-04-10T04:23:11;100791.81;;;7.82;59.94
40954;BME280;26686;50.130;8.710;2023-04-10T04:28:13;100791.53;;;7.72;60.34
40954;BME280;26686;50.130;8.710;2023-04-10T04:33:16;100794.66;;;7.64;60.46
40954;BME280;26686;50.130;8.710;2023-04-10T04:38:17;100798.22;;;7.63;60.51
40954;BME280;26686;50.130;8.710;2023-04-10T04:43:20;100793.13;;;7.60;60.96
40954;BME280;26686;50.130;8.710;2023-04-10T04:48:21;100799.94;;;7.64;60.68
40954;BME280;26686;50.130;8.710;2023-04-10T04:53:24;100797.53;;;7.59;60.62
40954;BME280;26686;50.130;8.710;2023-04-10T04:58:26;100794.91;;;7.59;61.55
40954;BME280;26686;50.130;8.710;2023-04-10T05:03:28;100800.28;;;7.58;61.38
40954;BME280;26686;50.130;8.710;2023-04-10T05:08:29;100801.72;;;7.64;61.36
40954;BME280;26686;50.130;8.710;2023-04-10T05:13:31;100796.69;;;7.59;61.14
40954;BME280;26686;50.130;8.710;2023-04-10T05:18:34;100808.47;;;7.69;61.13
40954;BME280;26686;50.130;8.710;2023-04-10T05:23:35;100792.00;;;7.64;61.08
40954;BME280;26686;50.130;8.710;2023-04-10T05:28:37;100801.63;;;7.65;60.92
40954;BME280;26686;50.130;8.710;2023-04-10T05:33:38;100817.94;;;7.73;60.96
40954;BME280;26686;50.130;8.710;2023-04-10T05:38:39;100821.34;;;7.75;61.45
40954;BME280;26686;50.130;8.710;2023-04-10T05:43:41;100826.47;;;7.78;60.90
40954;BME280;26686;50.130;8.710;2023-04-10T05:48:42;100816.13;;;7.74;61.29
40954;BME280;26686;50.130;8.710;2023-04-10T05:53:44;100828.56;;;7.88;61.06
40954;BME280;26686;50.130;8.710;2023-04-10T05:58:45;100827.63;;;7.89;60.78
40954;BME280;26686;50.130;8.710;2023-04-10T06:03:46;100836.03;;;7.95;60.49
40954;BME280;26686;50.130;8.710;2023-04-10T06:08:48;100822.03;;;7.93;60.63
40954;BME280;26686;50.130;8.710;2023-04-10T06:13:51;100827.84;;;8.00;60.62
40954;BME280;26686;50.130;8.710;2023-04-10T06:18:52;100824.81;;;8.06;60.79
40954;BME280;26686;50.130;8.710;2023-04-10T06:23:54;100819.03;;;8.14;60.97
40954;BME280;26686;50.130;8.710;2023-04-10T06:28:56;100821.38;;;8.33;60.59
40954;BME280;26686;50.130;8.710;2023-04-10T06:33:58;100815.38;;;8.45;60.22
40954;BME280;26686;50.130;8.710;2023-04-10T06:38:59;100811.28;;;8.54;59.39
40954;BME280;26686;50.130;8.710;2023-04-10T06:44:02;100805.41;;;8.63;59.14
40954;BME280;26686;50.130;8.710;2023-04-10T06:49:04;100805.44;;;8.76;58.80
40954;BME280;26686;50.130;8.710;2023-04-10T06:54:06;100809.78;;;8.92;58.58
40954;BME280;26686;50.130;8.710;2023-04-10T06:59:08;100810.78;;;9.03;58.21
40954;BME280;26686;50.130;8.710;2023-04-10T07:04:09;100795.84;;;9.15;57.89
40954;BME280;26686;50.130;8.710;2023-04-10T07:09:10;100801.53;;;9.36;57.42
40954;BME280;26686;50.130;8.710;2023-04-10T07:14:12;100802.78;;;9.58;56.43
40954;BME280;26686;50.130;8.710;2023-04-10T07:19:14;100799.38;;;9.69;56.51
40954;BME280;26686;50.130;8.710;2023-04-10T07:24:16;100802.16;;;9.93;55.87
40954;BME280;26686;50.130;8.710;2023-04-10T07:29:19;100805.13;;;10.14;55.30
40954;BME280;26686;50.130;8.710;2023-04-10T07:34:21;100794.94;;;10.34;54.91
40954;BME280;26686;50.130;8.710;2023-04-10T07:39:22;100780.53;;;10.49;54.61
40954;BME280;26686;50.130;8.710;2023-04-10T07:44:25;100787.19;;;10.68;53.90
40954;BME280;26686;50.130;8.710;2023-04-10T07:49:26;100792.13;;;10.85;53.71
40954;BME280;26686;50.130;8.710;2023-04-10T07:54:30;100783.03;;;11.01;53.33
40954;BME280;26686;50.130;8.710;2023-04-10T07:59:32;100786.28;;;11.28;53.11
40954;BME280;26686;50.130;8.710;2023-04-10T08:04:33;100774.25;;;11.47;52.10
40954;BME280;26686;50.130;8.710;2023-04-10T08:09:35;100763.66;;;11.70;51.79
40954;BME280;26686;50.130;8.710;2023-04-10T08:14:36;100765.59;;;11.90;51.23
40954;BME280;26686;50.130;8.710;2023-04-10T08:19:38;100759.09;;;12.06;51.21
40954;BME280;26686;50.130;8.710;2023-04-10T08:24:39;100749.28;;;12.29;50.65
40954;BME280;26686;50.130;8.710;2023-04-10T08:29:41;100750.69;;;12.55;49.04
40954;BME280;26686;50.130;8.710;2023-04-10T08:34:42;100735.25;;;12.70;48.74
40954;BME280;26686;50.130;8.710;2023-04-10T08:39:44;100713.81;;;12.82;48.00
40954;BME280;26686;50.130;8.710;2023-04-10T08:44:48;100708.13;;;13.07;47.24
40954;BME280;26686;50.130;8.710;2023-04-10T08:49:53;100714.56;;;13.37;45.84
40954;BME280;26686;50.130;8.710;2023-04-10T08:54:56;100706.50;;;13.49;45.14
40954;BME280;26686;50.130;8.710;2023-04-10T08:59:58;100696.44;;;13.62;45.06
40954;BME280;26686;50.130;8.710;2023-04-10T09:05:10;100694.75;;;13.92;44.81
40954;BME280;26686;50.130;8.710;2023-04-10T09:10:12;100681.31;;;14.13;43.66
40954;BME280;26686;50.130;8.710;2023-04-10T09:15:14;100682.88;;;14.35;42.71
40954;BME280;26686;50.130;8.710;2023-04-10T09:20:21;100677.06;;;14.61;41.44
40954;BME280;26686;50.130;8.710;2023-04-10T09:25:29;100664.09;;;14.85;41.28
40954;BME280;26686;50.130;8.710;2023-04-10T09:30:39;100650.88;;;15.41;40.02
40954;BME280;26686;50.130;8.710;2023-04-10T09:35:41;100634.28;;;16.03;40.29
40954;BME280;26686;50.130;8.710;2023-04-10T09:40:43;100639.03;;;16.37;38.67
40954;BME280;26686;50.130;8.710;2023-04-10T09:45:47;100625.75;;;16.53;39.24
40954;BME280;26686;50.130;8.710;2023-04-10T09:50:51;100624.78;;;16.54;38.65
40954;BME280;26686;50.130;8.710;2023-04-10T09:55:52;100613.41;;;16.60;38.26
40954;BME280;26686;50.130;8.710;2023-04-10T10:00:55;100601.47;;;16.99;37.80
40954;BME280;26686;50.130;8.710;2023-04-10T10:05:57;100593.44;;;17.34;36.86
40954;BME280;26686;50.130;8.710;2023-04-10T10:10:59;100589.63;;;17.79;35.16
40954;BME280;26686;50.130;8.710;2023-04-10T10:16:08;100582.50;;;18.04;35.25
40954;BME280;26686;50.130;8.710;2023-04-10T10:21:13;100562.34;;;19.71;33.51
40954;BME280;26686;50.130;8.710;2023-04-10T10:26:16;100558.13;;;22.34;30.84
40954;BME280;26686;50.130;8.710;2023-04-10T10:31:20;100556.88;;;23.36;27.32
40954;BME280;26686;50.130;8.710;2023-04-10T10:36:23;100535.75;;;23.03;28.76
40954;BME280;26686;50.130;8.710;2023-04-10T10:42:24;100543.28;;;22.51;27.90
40954;BME280;26686;50.130;8.710;2023-04-10T10:47:08;100521.97;;;23.05;27.47
40954;BME280;26686;50.130;8.710;2023-04-10T10:52:14;100512.69;;;26.08;24.53
40954;BME280;26686;50.130;8.710;2023-04-10T10:57:45;100502.31;;;28.94;20.72
40954;BME280;26686;50.130;8.710;2023-04-10T11:08:11;100495.09;;;31.83;17.08
40954;BME280;26686;50.130;8.710;2023-04-10T11:13:16;100478.88;;;31.59;17.50
40954;BME280;26686;50.130;8.710;2023-04-10T11:18:18;100465.53;;;31.51;17.41
40954;BME280;26686;50.130;8.710;2023-04-10T11:23:21;100437.75;;;32.34;17.16
40954;BME280;26686;50.130;8.710;2023-04-10T11:33:33;100420.16;;;30.09;19.17
40954;BME280;26686;50.130;8.710;2023-04-10T11:38:34;100415.56;;;29.11;19.16
40954;BME280;26686;50.130;8.710;2023-04-10T11:43:36;100411.47;;;28.37;19.58
40954;BME280;26686;50.130;8.710;2023-04-10T11:48:37;100401.34;;;28.38;19.72
40954;BME280;26686;50.130;8.710;2023-04-10T11:53:40;100393.28;;;26.98;21.05
40954;BME280;26686;50.130;8.710;2023-04-10T11:58:41;100376.19;;;25.26;23.39
40954;BME280;26686;50.130;8.710;2023-04-10T12:03:43;100376.63;;;24.64;23.39
40954;BME280;26686;50.130;8.710;2023-04-10T12:08:46;100370.63;;;24.22;23.53
40954;BME280;26686;50.130;8.710;2023-04-10T12:13:54;100361.31;;;23.43;23.06
40954;BME280;26686;50.130;8.710;2023-04-10T12:18:56;100354.97;;;22.74;24.03
40954;BME280;26686;50.130;8.710;2023-04-10T12:23:58;100351.94;;;22.20;23.54
40954;BME280;26686;50.130;8.710;2023-04-10T12:28:59;100336.00;;;22.74;23.44
40954;BME280;26686;50.130;8.710;2023-04-10T12:34:02;100332.09;;;22.90;22.80
40954;BME280;26686;50.130;8.710;2023-04-10T12:39:20;100320.84;;;22.51;22.14
40954;BME280;26686;50.130;8.710;2023-04-10T12:44:22;100314.84;;;22.28;22.66
40954;BME280;26686;50.130;8.710;2023-04-10T12:49:23;100310.88;;;22.58;23.03
40954;BME280;26686;50.130;8.710;2023-04-10T12:54:32;100307.94;;;22.53;22.06
40954;BME280;26686;50.130;8.710;2023-04-10T12:59:34;100300.19;;;22.50;22.53
40954;BME280;26686;50.130;8.710;2023-04-10T13:04:36;100291.56;;;22.33;22.52
40954;BME280;26686;50.130;8.710;2023-04-10T13:09:38;100287.09;;;22.25;22.07
40954;BME280;26686;50.130;8.710;2023-04-10T13:14:39;100283.47;;;22.12;22.22
40954;BME280;26686;50.130;8.710;2023-04-10T13:19:41;100260.00;;;21.91;22.22
40954;BME280;26686;50.130;8.710;2023-04-10T13:24:42;100254.19;;;22.00;22.19
40954;BME280;26686;50.130;8.710;2023-04-10T13:29:44;100246.75;;;22.09;21.50
40954;BME280;26686;50.130;8.710;2023-04-10T13:34:45;100247.97;;;22.00;22.18
40954;BME280;26686;50.130;8.710;2023-04-10T13:39:46;100231.44;;;21.95;22.16
40954;BME280;26686;50.130;8.710;2023-04-10T13:44:48;100234.09;;;21.81;22.95
40954;BME280;26686;50.130;8.710;2023-04-10T13:49:49;100218.91;;;21.59;22.18
40954;BME280;26686;50.130;8.710;2023-04-10T13:54:50;100216.91;;;21.46;21.98
40954;BME280;26686;50.130;8.710;2023-04-10T13:59:52;100205.22;;;21.17;22.21
40954;BME280;26686;50.130;8.710;2023-04-10T14:04:54;100190.56;;;21.11;22.05
40954;BME280;26686;50.130;8.710;2023-04-10T14:09:55;100193.41;;;21.25;23.56
40954;BME280;26686;50.130;8.710;2023-04-10T14:14:57;100188.31;;;21.36;23.36
40954;BME280;26686;50.130;8.710;2023-04-10T14:19:59;100173.25;;;21.06;22.42
40954;BME280;26686;50.130;8.710;2023-04-10T14:25:00;100152.84;;;20.81;22.50
40954;BME280;26686;50.130;8.710;2023-04-10T14:30:13;100153.53;;;20.90;23.16
40954;BME280;26686;50.130;8.710;2023-04-10T14:35:14;100148.44;;;20.80;22.98
40954;BME280;26686;50.130;8.710;2023-04-10T14:40:16;100136.00;;;20.64;24.04
40954;BME280;26686;50.130;8.710;2023-04-10T14:45:18;100145.53;;;20.60;23.53
40954;BME280;26686;50.130;8.710;2023-04-10T14:50:19;100129.16;;;20.47;21.89
40954;BME280;26686;50.130;8.710;2023-04-10T14:55:21;100119.41;;;20.31;23.93
40954;BME280;26686;50.130;8.710;2023-04-10T15:00:22;100105.00;;;20.24;23.66
40954;BME280;26686;50.130;8.710;2023-04-10T15:05:27;100095.72;;;19.96;24.29
40954;BME280;26686;50.130;8.710;2023-04-10T15:10:29;100080.56;;;19.95;23.74
40954;BME280;26686;50.130;8.710;2023-04-10T15:15:31;100069.84;;;19.87;23.79
40954;BME280;26686;50.130;8.710;2023-04-10T15:20:32;100063.69;;;19.78;24.64
40954;BME280;26686;50.130;8.710;2023-04-10T15:25:34;100066.56;;;19.77;25.08
40954;BME280;26686;50.130;8.710;2023-04-10T15:30:35;100058.38;;;19.70;23.99
40954;BME280;26686;50.130;8.710;2023-04-10T15:35:36;100053.75;;;19.64;22.81
40954;BME280;26686;50.130;8.710;2023-04-10T15:40:38;100022.75;;;19.30;22.70
40954;BME280;26686;50.130;8.710;2023-04-10T15:45:39;100029.66;;;19.33;23.36
40954;BME280;26686;50.130;8.710;2023-04-10T15:50:41;100000.16;;;19.31;24.01
40954;BME280;26686;50.130;8.710;2023-04-10T15:55:43;99990.28;;;19.38;23.61
40954;BME280;26686;50.130;8.710;2023-04-10T16:00:45;99986.91;;;19.36;23.48
40954;BME280;26686;50.130;8.710;2023-04-10T16:05:46;99983.78;;;19.18;23.96
40954;BME280;26686;50.130;8.710;2023-04-10T16:10:47;99970.09;;;19.04;24.57
40954;BME280;26686;50.130;8.710;2023-04-10T16:15:49;99973.16;;;18.86;24.62
40954;BME280;26686;50.130;8.710;2023-04-10T16:20:50;99962.69;;;18.68;24.90
40954;BME280;26686;50.130;8.710;2023-04-10T16:25:52;99969.00;;;18.61;25.31
40954;BME280;26686;50.130;8.710;2023-04-10T16:30:53;99970.56;;;18.55;25.47
40954;BME280;26686;50.130;8.710;2023-04-10T16:35:55;99962.56;;;18.47;25.45
40954;BME280;26686;50.130;8.710;2023-04-10T16:41:00;99957.22;;;18.38;26.26
40954;BME280;26686;50.130;8.710;2023-04-10T16:46:03;99952.22;;;18.35;26.39
40954;BME280;26686;50.130;8.710;2023-04-10T16:51:05;99943.53;;;18.25;26.50
40954;BME280;26686;50.130;8.710;2023-04-10T16:56:07;99930.44;;;18.22;26.67
40954;BME280;26686;50.130;8.710;2023-04-10T17:01:17;99924.56;;;18.18;26.98
40954;BME280;26686;50.130;8.710;2023-04-10T17:06:19;99911.34;;;18.09;26.88
40954;BME280;26686;50.130;8.710;2023-04-10T17:11:20;99912.75;;;18.05;27.29
40954;BME280;26686;50.130;8.710;2023-04-10T17:16:22;99913.94;;;18.02;27.44
40954;BME280;26686;50.130;8.710;2023-04-10T17:21:23;99905.72;;;17.95;27.77
40954;BME280;26686;50.130;8.710;2023-04-10T17:26:27;99890.97;;;17.91;28.39
40954;BME280;26686;50.130;8.710;2023-04-10T17:31:28;99886.28;;;17.85;29.02
40954;BME280;26686;50.130;8.710;2023-04-10T17:36:29;99881.28;;;17.74;29.85
40954;BME280;26686;50.130;8.710;2023-04-10T17:41:32;99880.84;;;17.70;30.52
40954;BME280;26686;50.130;8.710;2023-04-10T17:46:33;99883.38;;;17.63;31.28
40954;BME280;26686;50.130;8.710;2023-04-10T17:51:35;99886.50;;;17.52;31.71
40954;BME280;26686;50.130;8.710;2023-04-10T17:56:36;99881.50;;;17.41;31.76
40954;BME280;26686;50.130;8.710;2023-04-10T18:01:38;99858.38;;;17.31;32.39
40954;BME280;26686;50.130;8.710;2023-04-10T18:06:40;99846.59;;;17.33;33.04
40954;BME280;26686;50.130;8.710;2023-04-10T18:11:41;99859.72;;;17.27;32.80
40954;BME280;26686;50.130;8.710;2023-04-10T18:16:43;99877.56;;;17.20;33.09
40954;BME280;26686;50.130;8.710;2023-04-10T18:21:44;99879.63;;;17.18;33.27
40954;BME280;26686;50.130;8.710;2023-04-10T18:26:46;99862.81;;;17.16;33.52
40954;BME280;26686;50.130;8.710;2023-04-10T18:31:49;99845.72;;;17.09;32.70
40954;BME280;26686;50.130;8.710;2023-04-10T18:36:50;99848.75;;;17.06;32.99
40954;BME280;26686;50.130;8.710;2023-04-10T18:41:51;99849.75;;;17.05;33.27
40954;BME280;26686;50.130;8.710;2023-04-10T18:46:53;99855.31;;;17.03;33.78
40954;BME280;26686;50.130;8.710;2023-04-10T18:52:05;99861.41;;;16.97;33.67
40954;BME280;26686;50.130;8.710;2023-04-10T18:57:07;99873.03;;;16.89;34.09
40954;BME280;26686;50.130;8.710;2023-04-10T19:02:09;99858.38;;;16.84;34.33
40954;BME280;26686;50.130;8.710;2023-04-10T19:07:10;99861.94;;;16.76;34.63
40954;BME280;26686;50.130;8.710;2023-04-10T19:12:12;99867.66;;;16.73;34.76
40954;BME280;26686;50.130;8.710;2023-04-10T19:17:13;99872.38;;;16.71;35.32
40954;BME280;26686;50.130;8.710;2023-04-10T19:22:15;99860.78;;;16.70;35.00
40954;BME280;26686;50.130;8.710;2023-04-10T19:27:17;99858.13;;;16.62;35.39
40954;BME280;26686;50.130;8.710;2023-04-10T19:32:18;99841.50;;;16.58;35.63
40954;BME280;26686;50.130;8.710;2023-04-10T19:37:20;99843.88;;;16.53;36.12
40954;BME280;26686;50.130;8.710;2023-04-10T19:42:21;99843.88;;;16.45;36.12
40954;BME280;26686;50.130;8.710;2023-04-10T19:47:23;99849.25;;;16.45;36.69
40954;BME280;26686;50.130;8.710;2023-04-10T19:52:24;99838.22;;;16.40;36.43
40954;BME280;26686;50.130;8.710;2023-04-10T19:57:26;99826.97;;;16.36;36.88
40954;BME280;26686;50.130;8.710;2023-04-10T20:02:27;99816.25;;;16.36;37.12
40954;BME280;26686;50.130;8.710;2023-04-10T20:07:29;99802.94;;;16.35;37.40
40954;BME280;26686;50.130;8.710;2023-04-10T20:12:31;99787.19;;;16.32;37.86
40954;BME280;26686;50.130;8.710;2023-04-10T20:17:33;99792.25;;;16.26;38.84
40954;BME280;26686;50.130;8.710;2023-04-10T20:22:34;99769.78;;;16.19;41.78
40954;BME280;26686;50.130;8.710;2023-04-10T20:27:37;99767.78;;;16.13;42.56
40954;BME280;26686;50.130;8.710;2023-04-10T20:32:38;99763.09;;;16.07;43.36
40954;BME280;26686;50.130;8.710;2023-04-10T20:37:40;99747.66;;;16.01;43.53
40954;BME280;26686;50.130;8.710;2023-04-10T20:42:41;99752.03;;;16.02;43.27
40954;BME280;26686;50.130;8.710;2023-04-10T20:47:44;99744.00;;;16.02;44.06
40954;BME280;26686;50.130;8.710;2023-04-10T20:52:45;99736.09;;;16.00;44.25
40954;BME280;26686;50.130;8.710;2023-04-10T20:57:46;99711.44;;;15.97;44.01
40954;BME280;26686;50.130;8.710;2023-04-10T21:02:48;99723.53;;;15.93;44.06
40954;BME280;26686;50.130;8.710;2023-04-10T21:07:50;99736.28;;;15.90;43.63
40954;BME280;26686;50.130;8.710;2023-04-10T21:12:51;99726.41;;;15.83;43.90
40954;BME280;26686;50.130;8.710;2023-04-10T21:17:53;99706.09;;;15.72;43.70
40954;BME280;26686;50.130;8.710;2023-04-10T21:22:56;99678.59;;;15.70;43.72
40954;BME280;26686;50.130;8.710;2023-04-10T21:27:59;99695.38;;;15.72;43.71
40954;BME280;26686;50.130;8.710;2023-04-10T21:33:00;99670.88;;;15.67;43.91
40954;BME280;26686;50.130;8.710;2023-04-10T21:38:02;99643.06;;;15.68;43.72
40954;BME280;26686;50.130;8.710;2023-04-10T21:43:04;99637.69;;;15.68;43.85
40954;BME280;26686;50.130;8.710;2023-04-10T21:48:05;99639.72;;;15.66;43.94
40954;BME280;26686;50.130;8.710;2023-04-10T21:53:07;99632.00;;;15.63;44.41
40954;BME280;26686;50.130;8.710;2023-04-10T21:58:08;99634.69;;;15.63;44.70
40954;BME280;26686;50.130;8.710;2023-04-10T22:03:10;99611.91;;;15.59;44.42
40954;BME280;26686;50.130;8.710;2023-04-10T22:08:11;99618.75;;;15.61;44.70
40954;BME280;26686;50.130;8.710;2023-04-10T22:13:14;99616.75;;;15.55;44.87
40954;BME280;26686;50.130;8.710;2023-04-10T22:18:19;99628.69;;;15.44;46.17
40954;BME280;26686;50.130;8.710;2023-04-10T22:23:20;99648.31;;;15.45;47.93
40954;BME280;26686;50.130;8.710;2023-04-10T22:28:21;99670.94;;;15.26;49.68
40954;BME280;26686;50.130;8.710;2023-04-10T22:33:23;99671.25;;;14.98;53.87
40954;BME280;26686;50.130;8.710;2023-04-10T22:38:24;99653.50;;;14.80;56.23
40954;BME280;26686;50.130;8.710;2023-04-10T22:43:26;99674.91;;;14.64;59.28
40954;BME280;26686;50.130;8.710;2023-04-10T22:48:27;99692.19;;;14.35;63.63
40954;BME280;26686;50.130;8.710;2023-04-10T22:53:29;99679.03;;;14.07;67.68
40954;BME280;26686;50.130;8.710;2023-04-10T22:58:30;99658.38;;;13.91;70.44
40954;BME280;26686;50.130;8.710;2023-04-10T23:03:32;99659.16;;;13.84;71.83
40954;BME280;26686;50.130;8.710;2023-04-10T23:08:35;99658.03;;;13.94;71.38
40954;BME280;26686;50.130;8.710;2023-04-10T23:13:43;99642.56;;;13.72;73.74
40954;BME280;26686;50.130;8.710;2023-04-10T23:18:59;99656.06;;;13.62;74.68
40954;BME280;26686;50.130;8.710;2023-04-10T23:24:02;99670.78;;;13.66;75.43
40954;BME280;26686;50.130;8.710;2023-04-10T23:29:07;99671.78;;;13.65;75.88
40954;BME280;26686;50.130;8.710;2023-04-10T23:34:12;99663.75;;;13.65;76.07
40954;BME280;26686;50.130;8.710;2023-04-10T23:39:18;99656.38;;;13.59;77.62
40954;BME280;26686;50.130;8.710;2023-04-10T23:44:23;99658.72;;;13.62;77.23
40954;BME280;26686;50.130;8.710;2023-04-10T23:49:24;99661.00;;;13.57;75.91
40954;BME280;26686;50.130;8.710;2023-04-10T23:54:28;99674.50;;;13.47;79.20
40954;BME280;26686;50.130;8.710;2023-04-10T23:59:29;99677.66;;;13.42;73.95
